Time;durP1;ratioP1;P1;durP2;ratioP2;P2;SDS_P1;SDS_P2;PMS_P1;PMS_P2;Temp;Humidity;BMP_temperature;BMP_pressure;BME280_temperature;BME280_humidity;BME280_pressure;Samples;Min_cycle;Max_cycle;Signal;HPM_P1;HPM_P2
2021/09/20 00:01:43;;;;;;;1.43;1.33;;;15.30;99.90;;;;;;5035100;28;20541;-71
2021/09/20 00:04:10;;;;;;;1.10;1.10;;;15.30;99.90;;;;;;5035297;28;20578;-74
2021/09/20 00:06:37;;;;;;;1.50;1.50;;;15.30;99.90;;;;;;5035301;28;20935;-71
2021/09/20 00:09:05;;;;;;;1.47;1.37;;;15.30;99.90;;;;;;5035087;28;20636;-71
2021/09/20 00:11:32;;;;;;;1.48;1.30;;;15.20;99.90;;;;;;5035053;28;20461;-71
2021/09/20 00:13:59;;;;;;;1.60;1.50;;;15.20;99.90;;;;;;5035207;28;20265;-71
2021/09/20 00:16:26;;;;;;;1.70;1.60;;;15.20;99.90;;;;;;5035752;28;20630;-71
2021/09/20 00:18:54;;;;;;;1.60;1.50;;;15.30;99.90;;;;;;5036570;28;20501;-71
2021/09/20 00:21:21;;;;;;;1.25;1.25;;;15.30;99.90;;;;;;5037104;28;20452;-71
2021/09/20 00:23:48;;;;;;;1.65;1.50;;;15.30;99.90;;;;;;5034888;28;20669;-71
2021/09/20 00:26:15;;;;;;;1.90;1.80;;;15.30;99.90;;;;;;5034735;28;20294;-71
2021/09/20 00:28:42;;;;;;;1.50;1.40;;;15.40;99.90;;;;;;5035177;28;20691;-71
2021/09/20 00:31:08;;;;;;;1.40;1.30;;;15.40;99.90;;;;;;5034999;28;20239;-71
2021/09/20 00:33:35;;;;;;;1.67;1.47;;;15.40;99.90;;;;;;5034637;28;20771;-70
2021/09/20 00:36:04;;;;;;;1.60;1.50;;;15.40;99.90;;;;;;5034465;28;20480;-71
2021/09/20 00:38:31;;;;;;;1.83;1.50;;;15.50;99.90;;;;;;5034526;28;20559;-72
2021/09/20 00:40:58;;;;;;;1.93;1.83;;;15.50;99.90;;;;;;5032974;28;20969;-73
2021/09/20 00:43:25;;;;;;;1.60;1.50;;;15.50;99.90;;;;;;5034576;28;20980;-71
2021/09/20 00:45:52;;;;;;;1.70;1.60;;;15.50;99.90;;;;;;5034384;28;20513;-71
2021/09/20 00:48:19;;;;;;;1.40;1.30;;;15.50;99.90;;;;;;5034594;28;21039;-71
2021/09/20 00:50:46;;;;;;;1.23;1.23;;;15.50;99.90;;;;;;5033806;28;20489;-74
2021/09/20 00:53:14;;;;;;;1.60;1.50;;;15.50;99.90;;;;;;5034360;28;20268;-71
2021/09/20 00:55:44;;;;;;;2.08;1.98;;;15.50;99.90;;;;;;5033876;28;20501;-71
2021/09/20 00:58:12;;;;;;;1.50;1.40;;;15.40;99.90;;;;;;5034516;28;20252;-71
2021/09/20 01:00:39;;;;;;;1.30;1.20;;;15.50;99.90;;;;;;5034242;28;20559;-71
2021/09/20 01:03:06;;;;;;;1.20;1.10;;;15.50;99.90;;;;;;5033837;28;20490;-71
2021/09/20 01:05:33;;;;;;;1.63;1.53;;;15.40;99.90;;;;;;5034113;28;20458;-72
2021/09/20 01:08:00;;;;;;;1.90;1.67;;;15.40;99.90;;;;;;5034645;28;20506;-71
2021/09/20 01:10:28;;;;;;;1.05;1.05;;;15.40;99.90;;;;;;5034146;28;20872;-71
2021/09/20 01:12:56;;;;;;;1.80;1.60;;;15.40;99.90;;;;;;5033852;28;20223;-73
2021/09/20 01:15:23;;;;;;;1.37;1.37;;;15.30;99.90;;;;;;5034890;28;20549;-72
2021/09/20 01:17:50;;;;;;;1.50;1.40;;;15.30;99.90;;;;;;5033547;28;20456;-72
2021/09/20 01:20:17;;;;;;;1.53;1.43;;;15.30;99.90;;;;;;5013624;28;20552;-72
2021/09/20 01:22:51;;;;;;;1.35;1.35;;;15.30;99.90;;;;;;5014256;28;20458;-74
2021/09/20 01:25:19;;;;;;;1.75;1.63;;;15.20;99.90;;;;;;5014779;28;20244;-73
2021/09/20 01:27:46;;;;;;;2.30;1.47;;;15.20;99.90;;;;;;5014669;28;20738;-73
2021/09/20 01:30:13;;;;;;;3.73;1.50;;;15.20;99.90;;;;;;5033319;28;20952;-72
2021/09/20 01:32:40;;;;;;;1.50;1.20;;;15.30;99.90;;;;;;5033832;28;20558;-75
2021/09/20 01:35:08;;;;;;;1.60;1.50;;;15.30;99.90;;;;;;5033263;28;21056;-71
2021/09/20 01:37:35;;;;;;;1.20;1.20;;;15.30;99.90;;;;;;5033421;28;20546;-72
2021/09/20 01:40:02;;;;;;;3.03;1.90;;;15.30;99.90;;;;;;5033081;28;20482;-71
2021/09/20 01:42:31;;;;;;;4.30;1.63;;;15.40;99.90;;;;;;5033636;28;20836;-72
2021/09/20 01:44:58;;;;;;;1.83;1.73;;;15.30;99.90;;;;;;5033301;28;20978;-72
2021/09/20 01:47:25;;;;;;;1.77;1.67;;;15.30;99.90;;;;;;5032890;28;20452;-71
2021/09/20 01:49:51;;;;;;;1.40;1.40;;;15.30;99.90;;;;;;5033201;28;20497;-71
2021/09/20 01:52:18;;;;;;;2.60;1.50;;;15.40;99.90;;;;;;5033139;28;20553;-71
2021/09/20 01:54:46;;;;;;;1.60;1.50;;;15.40;99.90;;;;;;5036706;28;20519;-71
2021/09/20 01:57:13;;;;;;;3.00;1.87;;;15.40;99.90;;;;;;5053328;28;20486;-74
2021/09/20 01:59:41;;;;;;;1.80;1.70;;;15.30;99.90;;;;;;5053278;28;20899;-71
2021/09/20 02:02:08;;;;;;;4.27;3.50;;;15.30;99.90;;;;;;5043344;28;20939;-72
2021/09/20 02:04:35;;;;;;;5.27;4.77;;;15.30;99.90;;;;;;5034993;28;20481;-74
2021/09/20 02:07:01;;;;;;;5.03;4.43;;;15.20;99.90;;;;;;5034352;28;20487;-71
2021/09/20 02:09:28;;;;;;;5.00;4.50;;;15.10;99.90;;;;;;5032905;28;20453;-72
2021/09/20 02:11:55;;;;;;;5.27;4.37;;;15.10;99.90;;;;;;5032886;28;20543;-72
2021/09/20 02:14:22;;;;;;;5.70;5.10;;;14.90;99.90;;;;;;5033402;28;20526;-70
2021/09/20 02:16:50;;;;;;;4.97;4.50;;;15.10;99.90;;;;;;5033141;28;21087;-71
2021/09/20 02:19:17;;;;;;;5.70;5.10;;;15.10;99.90;;;;;;5033178;28;20942;-70
2021/09/20 02:21:44;;;;;;;4.90;4.40;;;15.00;99.90;;;;;;5037306;28;20513;-71
2021/09/20 02:24:11;;;;;;;5.35;4.65;;;15.00;99.90;;;;;;5032985;28;20548;-71
2021/09/20 02:26:38;;;;;;;8.40;5.73;;;15.00;99.90;;;;;;5033467;28;20230;-71
2021/09/20 02:29:06;;;;;;;7.67;5.20;;;14.90;99.90;;;;;;5032362;28;20534;-71
2021/09/20 02:31:33;;;;;;;5.78;5.25;;;14.90;99.90;;;;;;5032527;28;20455;-71
2021/09/20 02:34:02;;;;;;;6.38;4.68;;;14.80;99.90;;;;;;5032709;28;20830;-71
2021/09/20 02:36:29;;;;;;;5.60;5.00;;;14.80;99.90;;;;;;5032341;28;20285;-74
2021/09/20 02:38:56;;;;;;;6.37;5.50;;;14.90;99.90;;;;;;5032349;28;20454;-71
2021/09/20 02:41:23;;;;;;;4.70;4.30;;;15.00;99.90;;;;;;5032484;28;20486;-71
2021/09/20 02:43:50;;;;;;;3.53;3.20;;;15.00;99.90;;;;;;5032754;28;20283;-71
2021/09/20 02:46:17;;;;;;;3.53;3.22;;;15.10;99.90;;;;;;5032552;28;20493;-71
2021/09/20 02:48:44;;;;;;;3.42;2.92;;;15.20;99.90;;;;;;5032373;28;20676;-74
2021/09/20 02:51:12;;;;;;;2.87;2.67;;;15.20;99.90;;;;;;5032515;28;20219;-71
2021/09/20 02:53:39;;;;;;;5.28;3.30;;;15.30;99.90;;;;;;5032367;28;20562;-71
2021/09/20 02:56:07;;;;;;;3.08;2.72;;;15.30;99.90;;;;;;5032394;28;20609;-71
2021/09/20 02:58:34;;;;;;;3.53;3.23;;;15.30;99.90;;;;;;5032346;28;20643;-71
2021/09/20 03:01:01;;;;;;;5.32;4.00;;;15.30;99.90;;;;;;5031904;28;20553;-72
2021/09/20 03:03:28;;;;;;;4.15;3.35;;;15.30;99.90;;;;;;5031373;28;20318;-72
2021/09/20 03:05:55;;;;;;;4.75;4.10;;;15.30;99.90;;;;;;5032177;28;20286;-72
2021/09/20 03:08:23;;;;;;;5.45;4.47;;;15.20;99.90;;;;;;5032440;28;20563;-71
2021/09/20 03:10:50;;;;;;;5.17;4.67;;;15.20;99.90;;;;;;5031860;28;20236;-72
2021/09/20 03:13:17;;;;;;;7.90;5.55;;;15.30;99.90;;;;;;5032550;28;20450;-71
2021/09/20 03:15:44;;;;;;;6.35;5.75;;;15.30;99.90;;;;;;5031888;28;20633;-74
2021/09/20 03:18:11;;;;;;;5.50;5.00;;;15.30;99.90;;;;;;5032004;28;20659;-71
2021/09/20 03:20:38;;;;;;;6.63;6.00;;;15.20;99.90;;;;;;5031945;28;20533;-71
2021/09/20 03:23:05;;;;;;;6.20;5.60;;;15.30;99.90;;;;;;5031816;28;20826;-72
2021/09/20 03:25:33;;;;;;;6.03;5.43;;;15.30;99.90;;;;;;5032102;28;20451;-71
2021/09/20 03:28:00;;;;;;;6.97;6.13;;;15.30;99.90;;;;;;5032168;28;20677;-71
2021/09/20 03:30:27;;;;;;;8.70;6.00;;;15.40;99.90;;;;;;5031859;28;20539;-72
2021/09/20 03:32:54;;;;;;;7.50;6.70;;;15.40;99.90;;;;;;5031656;28;20477;-71
2021/09/20 03:35:21;;;;;;;6.85;6.15;;;15.40;99.90;;;;;;5032707;28;20239;-70
2021/09/20 03:37:49;;;;;;;7.00;6.30;;;15.40;99.90;;;;;;5033502;28;20695;-70
2021/09/20 03:40:19;;;;;;;7.77;7.07;;;15.40;99.90;;;;;;5033750;28;20543;-71
2021/09/20 03:42:47;;;;;;;8.20;6.90;;;15.40;99.90;;;;;;5034267;28;20487;-70
2021/09/20 03:45:15;;;;;;;8.85;7.38;;;15.40;99.90;;;;;;5034484;28;20558;-70
2021/09/20 03:47:43;;;;;;;8.38;7.53;;;15.40;99.90;;;;;;5032773;28;20204;-71
2021/09/20 03:50:11;;;;;;;8.50;7.70;;;15.30;99.90;;;;;;5032443;28;20504;-71
2021/09/20 03:52:39;;;;;;;9.65;8.70;;;15.30;99.90;;;;;;5033490;28;20224;-73
2021/09/20 03:55:07;;;;;;;9.45;8.45;;;15.30;99.90;;;;;;5034612;28;20234;-72
2021/09/20 03:57:34;;;;;;;9.52;8.45;;;15.30;99.90;;;;;;5034076;28;20219;-70
2021/09/20 04:00:03;;;;;;;13.38;9.23;;;15.30;99.90;;;;;;5034048;28;20304;-72
2021/09/20 04:02:30;;;;;;;11.25;9.85;;;15.30;99.90;;;;;;5053697;23;20259;-79
2021/09/20 04:04:57;;;;;;;11.60;10.40;;;15.30;99.90;;;;;;5032810;28;20663;-79
2021/09/20 04:07:24;;;;;;;14.45;11.27;;;15.30;99.90;;;;;;5032486;28;20645;-78
2021/09/20 04:09:51;;;;;;;12.05;10.57;;;15.30;99.90;;;;;;5033023;28;20270;-79
2021/09/20 04:12:18;;;;;;;15.37;11.80;;;15.30;99.90;;;;;;5032611;28;20615;-79
2021/09/20 04:14:45;;;;;;;13.03;11.07;;;15.30;99.90;;;;;;5035195;28;20616;-79
2021/09/20 04:17:13;;;;;;;13.95;11.07;;;15.30;99.90;;;;;;5036782;28;20501;-79
2021/09/20 04:19:40;;;;;;;13.47;10.83;;;15.30;99.90;;;;;;5036817;28;20227;-78
2021/09/20 04:22:07;;;;;;;18.40;11.85;;;15.30;99.90;;;;;;5036409;28;20460;-79
2021/09/20 04:24:34;;;;;;;16.52;11.27;;;15.30;99.90;;;;;;5036255;28;20291;-79
2021/09/20 04:27:01;;;;;;;13.57;10.73;;;15.30;99.90;;;;;;5035896;28;20227;-78
2021/09/20 04:29:28;;;;;;;12.75;10.40;;;15.30;99.90;;;;;;5035492;28;20619;-78
2021/09/20 04:31:55;;;;;;;16.47;10.90;;;15.30;99.90;;;;;;5036273;28;20212;-79
2021/09/20 04:34:24;;;;;;;18.07;11.83;;;15.30;99.90;;;;;;5035802;28;20466;-79
2021/09/20 04:36:53;;;;;;;14.85;12.00;;;15.30;99.90;;;;;;5036181;28;20482;-79
2021/09/20 04:39:20;;;;;;;14.70;12.00;;;15.30;99.90;;;;;;5035502;28;20644;-79
2021/09/20 04:41:47;;;;;;;14.50;10.25;;;15.30;99.90;;;;;;5036803;28;20256;-78
2021/09/20 04:44:14;;;;;;;16.10;12.10;;;15.30;99.90;;;;;;5038163;28;20255;-80
2021/09/20 04:46:41;;;;;;;16.10;12.15;;;15.20;99.90;;;;;;5037299;28;20549;-79
2021/09/20 04:49:07;;;;;;;15.82;11.65;;;15.10;99.90;;;;;;5055935;28;20227;-79
2021/09/20 04:51:36;;;;;;;15.05;11.63;;;15.10;99.90;;;;;;5045824;28;20294;-79
2021/09/20 04:54:03;;;;;;;13.27;10.88;;;15.10;99.90;;;;;;5047090;28;20207;-80
2021/09/20 04:56:30;;;;;;;9.48;7.93;;;15.00;99.90;;;;;;5054214;28;20368;-79
2021/09/20 04:58:57;;;;;;;8.27;7.45;;;14.90;99.90;;;;;;5044398;28;20258;-78
2021/09/20 05:01:24;;;;;;;9.57;7.57;;;14.80;99.90;;;;;;5036904;28;20578;-79
2021/09/20 05:03:51;;;;;;;11.60;7.60;;;14.60;99.90;;;;;;5035395;28;20655;-79
2021/09/20 05:06:18;;;;;;;8.55;6.85;;;14.70;99.90;;;;;;5035007;28;20307;-77
2021/09/20 05:08:46;;;;;;;8.30;7.05;;;14.70;99.90;;;;;;5035719;28;20899;-80
2021/09/20 05:11:13;;;;;;;9.02;7.90;;;14.70;99.90;;;;;;5036271;28;20236;-79
2021/09/20 05:13:40;;;;;;;8.35;7.45;;;14.60;99.90;;;;;;5034947;28;20315;-79
2021/09/20 05:16:07;;;;;;;9.07;7.50;;;14.70;99.90;;;;;;5036043;28;20196;-79
2021/09/20 05:18:34;;;;;;;8.07;7.28;;;14.60;99.90;;;;;;5035562;28;20318;-79
2021/09/20 05:21:01;;;;;;;9.27;7.30;;;14.50;99.90;;;;;;5034793;28;20305;-79
2021/09/20 05:23:28;;;;;;;8.77;7.88;;;14.50;99.90;;;;;;5035090;28;20237;-79
2021/09/20 05:25:56;;;;;;;8.82;7.10;;;14.50;99.90;;;;;;5037629;28;20261;-79
2021/09/20 05:28:24;;;;;;;8.75;7.88;;;14.40;99.90;;;;;;5036443;28;20211;-78
2021/09/20 05:30:51;;;;;;;8.05;7.22;;;14.10;99.90;;;;;;5038722;28;20207;-78
2021/09/20 05:33:18;;;;;;;8.50;7.25;;;14.10;99.90;;;;;;5041335;28;20228;-78
2021/09/20 05:35:45;;;;;;;8.82;7.20;;;14.00;99.90;;;;;;5038220;28;20279;-77
2021/09/20 05:38:14;;;;;;;8.93;7.78;;;14.00;99.90;;;;;;5037098;28;20726;-79
2021/09/20 05:40:42;;;;;;;8.55;7.32;;;14.00;99.90;;;;;;5041066;28;20203;-78
2021/09/20 05:43:10;;;;;;;9.68;7.70;;;14.00;99.90;;;;;;5041868;28;20258;-78
2021/09/20 05:45:37;;;;;;;8.80;7.28;;;14.10;99.90;;;;;;5046557;28;20230;-78
2021/09/20 05:48:05;;;;;;;10.15;7.20;;;14.00;99.90;;;;;;5043979;28;20204;-78
2021/09/20 05:50:32;;;;;;;12.20;6.80;;;14.10;99.90;;;;;;5046497;28;20203;-78
2021/09/20 05:52:59;;;;;;;8.48;7.28;;;14.20;99.90;;;;;;5043612;28;20247;-77
2021/09/20 05:55:26;;;;;;;7.68;6.75;;;14.10;99.90;;;;;;5033402;28;20629;-78
2021/09/20 05:57:53;;;;;;;7.80;6.80;;;14.10;99.90;;;;;;5034342;28;20698;-77
2021/09/20 06:00:22;;;;;;;9.35;7.28;;;14.20;99.90;;;;;;5034225;28;20294;-77
2021/09/20 06:02:49;;;;;;;11.10;7.15;;;14.10;99.90;;;;;;5032419;28;20665;-77
2021/09/20 06:05:16;;;;;;;7.50;6.72;;;14.20;99.90;;;;;;5033544;28;20670;-77
2021/09/20 06:07:43;;;;;;;9.85;6.80;;;14.10;99.90;;;;;;5037390;28;20238;-79
2021/09/20 06:10:12;;;;;;;8.85;7.60;;;14.20;99.90;;;;;;5036025;28;20280;-77
2021/09/20 06:12:39;;;;;;;10.75;7.10;;;14.20;99.90;;;;;;5043793;28;20253;-78
2021/09/20 06:15:08;;;;;;;8.55;7.30;;;14.30;99.90;;;;;;5042362;28;20428;-78
2021/09/20 06:17:37;;;;;;;8.23;7.30;;;14.30;99.20;;;;;;5035839;28;20222;-78
2021/09/20 06:20:05;;;;;;;10.60;7.57;;;14.30;98.50;;;;;;5028516;28;20737;-79
2021/09/20 06:22:32;;;;;;;11.75;7.13;;;14.20;98.50;;;;;;5034041;28;20233;-80
2021/09/20 06:24:59;;;;;;;8.82;7.05;;;14.10;98.60;;;;;;5034358;28;20203;-77
2021/09/20 06:27:27;;;;;;;7.95;6.95;;;14.10;98.20;;;;;;5024476;28;20204;-78
2021/09/20 06:29:54;;;;;;;9.13;6.97;;;14.20;98.40;;;;;;5018954;28;20632;-78
2021/09/20 06:32:21;;;;;;;9.30;7.45;;;14.40;98.10;;;;;;5034683;28;20253;-80
2021/09/20 06:34:49;;;;;;;9.07;6.82;;;14.40;97.20;;;;;;5038177;28;20257;-79
2021/09/20 06:37:16;;;;;;;10.18;7.35;;;14.50;96.70;;;;;;5035129;28;20299;-78
2021/09/20 06:39:43;;;;;;;8.15;7.32;;;14.60;96.10;;;;;;5032404;28;20303;-78
2021/09/20 06:42:10;;;;;;;8.13;6.93;;;14.60;95.90;;;;;;5033398;28;20215;-79
2021/09/20 06:44:37;;;;;;;8.27;7.47;;;14.80;95.10;;;;;;5038863;28;20879;-79
2021/09/20 06:47:04;;;;;;;9.18;8.02;;;14.90;93.60;;;;;;5039724;28;20268;-79
2021/09/20 06:49:31;;;;;;;8.40;7.07;;;14.70;93.30;;;;;;5041293;28;20199;-78
2021/09/20 06:51:59;;;;;;;11.10;7.50;;;14.60;94.00;;;;;;5037344;28;20462;-77
2021/09/20 06:54:27;;;;;;;7.82;6.90;;;14.60;94.50;;;;;;5034834;28;20203;-79
2021/09/20 06:56:53;;;;;;;10.52;8.00;;;14.70;94.50;;;;;;5033440;28;20204;-78
2021/09/20 06:59:20;;;;;;;9.13;7.75;;;14.70;94.70;;;;;;5032883;28;20234;-78
2021/09/20 07:01:47;;;;;;;10.63;7.20;;;14.60;94.20;;;;;;5033928;28;20210;-78
2021/09/20 07:04:14;;;;;;;9.55;7.65;;;14.80;95.10;;;;;;5030805;28;20246;-78
2021/09/20 07:06:43;;;;;;;9.55;7.43;;;15.00;94.50;;;;;;5031478;28;20523;-79
2021/09/20 07:09:12;;;;;;;9.23;7.28;;;15.30;92.70;;;;;;5028871;28;20209;-79
2021/09/20 07:11:39;;;;;;;8.55;7.20;;;15.10;91.60;;;;;;5034462;28;20660;-79
2021/09/20 07:14:06;;;;;;;10.85;8.98;;;15.00;92.30;;;;;;5034519;28;20260;-79
2021/09/20 07:16:33;;;;;;;10.40;8.30;;;15.00;92.60;;;;;;5035072;28;20729;-80
2021/09/20 07:19:00;;;;;;;9.35;8.45;;;14.90;93.30;;;;;;5035154;28;20266;-79
2021/09/20 07:21:28;;;;;;;9.77;8.00;;;15.00;94.80;;;;;;5033040;28;20571;-78
2021/09/20 07:23:55;;;;;;;10.90;7.97;;;15.40;92.70;;;;;;5033139;28;20696;-79
2021/09/20 07:26:26;;;;;;;9.23;8.00;;;15.70;90.80;;;;;;5033276;28;20213;-78
2021/09/20 07:28:54;;;;;;;10.13;7.73;;;15.70;89.90;;;;;;5033460;28;20453;-78
2021/09/20 07:31:21;;;;;;;14.80;8.30;;;15.60;88.70;;;;;;5033246;28;20554;-78
2021/09/20 07:33:48;;;;;;;9.50;8.60;;;15.40;90.00;;;;;;5034683;28;20481;-78
2021/09/20 07:36:16;;;;;;;14.90;9.10;;;15.50;90.70;;;;;;5036137;28;20527;-79
2021/09/20 07:38:43;;;;;;;12.03;8.80;;;15.50;90.20;;;;;;5035412;28;20481;-79
2021/09/20 07:41:10;;;;;;;11.07;8.53;;;15.60;90.30;;;;;;5035121;28;20488;-79
2021/09/20 07:43:44;;;;;;;11.38;10.18;;;15.60;91.10;;;;;;5035307;28;20552;-79
2021/09/20 07:46:12;;;;;;;11.18;8.65;;;15.50;90.60;;;;;;5040123;28;20215;-79
2021/09/20 07:48:39;;;;;;;13.83;9.10;;;15.40;91.80;;;;;;5062512;28;20212;-79
2021/09/20 07:51:06;;;;;;;9.53;8.43;;;15.50;91.80;;;;;;5075171;28;20470;-81
2021/09/20 07:53:33;;;;;;;11.45;8.52;;;15.40;92.80;;;;;;5078842;28;20478;-80
2021/09/20 07:56:00;;;;;;;11.87;8.70;;;15.70;90.40;;;;;;5079721;28;20197;-79
2021/09/20 07:58:27;;;;;;;12.63;9.07;;;15.80;87.10;;;;;;5077963;28;20483;-80
2021/09/20 08:00:55;;;;;;;8.57;7.77;;;15.80;87.70;;;;;;5079384;28;20455;-80
2021/09/20 08:03:22;;;;;;;11.33;8.00;;;15.70;88.70;;;;;;5079768;28;20467;-79
2021/09/20 08:05:49;;;;;;;10.10;8.20;;;15.90;85.50;;;;;;5076422;28;20467;-79
2021/09/20 08:08:16;;;;;;;10.00;8.73;;;16.20;81.90;;;;;;5071494;28;20924;-79
2021/09/20 08:10:43;;;;;;;10.43;8.00;;;16.30;80.30;;;;;;5068345;28;20474;-80
2021/09/20 08:13:10;;;;;;;10.10;8.40;;;16.60;79.10;;;;;;5076731;28;20464;-80
2021/09/20 08:15:38;;;;;;;9.33;8.20;;;16.70;76.10;;;;;;5062226;28;20479;-80
2021/09/20 08:18:06;;;;;;;9.27;8.13;;;16.30;77.50;;;;;;5061538;28;20469;-81
2021/09/20 08:20:34;;;;;;;16.80;9.33;;;16.10;78.50;;;;;;5061205;28;20470;-80
2021/09/20 08:23:01;;;;;;;11.07;8.80;;;15.90;81.60;;;;;;5046491;28;20508;-80
2021/09/20 08:25:31;;;;;;;12.10;9.50;;;15.90;81.60;;;;;;5052812;28;20456;-78
2021/09/20 08:27:58;;;;;;;12.50;9.03;;;16.10;80.90;;;;;;5039909;28;20470;-78
2021/09/20 08:30:25;;;;;;;12.97;10.20;;;16.00;80.20;;;;;;5038516;28;20947;-78
2021/09/20 08:32:52;;;;;;;13.00;10.00;;;15.70;81.50;;;;;;5037866;28;21014;-79
2021/09/20 08:35:21;;;;;;;13.77;10.17;;;15.60;84.10;;;;;;5038879;28;20452;-79
2021/09/20 08:37:49;;;;;;;13.45;9.82;;;15.90;81.60;;;;;;5047178;28;20456;-80
2021/09/20 08:40:18;;;;;;;12.83;9.50;;;15.90;80.80;;;;;;5039868;28;20264;-80
2021/09/20 08:42:45;;;;;;;10.50;8.53;;;16.10;81.30;;;;;;5040696;28;20521;-78
2021/09/20 08:45:16;;;;;;;11.53;8.63;;;16.50;79.10;;;;;;5037992;28;20458;-80
2021/09/20 08:47:45;;;;;;;12.33;9.50;;;16.70;73.70;;;;;;5041347;28;20969;-80
2021/09/20 08:50:13;;;;;;;10.30;8.97;;;16.70;75.40;;;;;;5040711;28;20480;-80
2021/09/20 08:52:41;;;;;;;10.57;9.53;;;16.50;76.00;;;;;;5039709;28;20728;-78
2021/09/20 08:55:09;;;;;;;11.33;9.50;;;16.40;76.80;;;;;;5047057;28;20457;-79
2021/09/20 08:57:36;;;;;;;12.50;9.30;;;16.50;76.80;;;;;;5045674;28;20551;-78
2021/09/20 09:00:06;;;;;;;12.90;10.20;;;16.70;76.20;;;;;;5044455;28;20521;-80
2021/09/20 09:02:34;;;;;;;11.57;10.10;;;16.60;75.70;;;;;;5048144;28;20488;-80
2021/09/20 09:05:13;;;;;;;16.30;9.70;;;16.40;75.90;;;;;;5046788;28;20450;-79
2021/09/20 09:07:44;;;;;;;12.60;9.77;;;16.70;75.00;;;;;;5040564;28;20463;-78
2021/09/20 09:10:12;;;;;;;12.87;10.90;;;16.90;74.00;;;;;;5039240;28;20549;-79
2021/09/20 09:12:39;;;;;;;10.77;9.47;;;16.70;74.90;;;;;;5038428;28;20591;-79
2021/09/20 09:15:08;;;;;;;12.70;10.20;;;16.80;74.40;;;;;;5037874;28;20450;-81
2021/09/20 09:17:38;;;;;;;11.07;9.97;;;16.80;74.10;;;;;;5039865;28;20552;-80
2021/09/20 09:20:08;;;;;;;11.50;10.20;;;17.30;72.80;;;;;;5042886;28;20525;-79
2021/09/20 09:22:42;;;;;;;12.13;10.23;;;17.10;72.00;;;;;;5039597;28;20474;-79
2021/09/20 09:25:13;;;;;;;16.53;10.30;;;16.90;73.90;;;;;;5036869;28;20448;-79
2021/09/20 09:27:42;;;;;;;11.93;9.80;;;16.80;74.20;;;;;;5038517;28;20452;-79
2021/09/20 09:30:13;;;;;;;14.27;10.50;;;17.00;74.00;;;;;;5038605;28;20484;-80
2021/09/20 09:32:41;;;;;;;11.13;10.00;;;17.00;72.90;;;;;;5038091;28;20470;-77
2021/09/20 09:35:09;;;;;;;10.63;9.07;;;17.10;74.10;;;;;;5040825;28;20469;-78
2021/09/20 09:37:37;;;;;;;9.63;8.53;;;17.70;71.30;;;;;;5038307;28;20545;-78
2021/09/20 09:40:12;;;;;;;10.80;9.17;;;17.90;68.60;;;;;;5036684;28;21056;-78
2021/09/20 09:42:39;;;;;;;12.23;10.27;;;18.30;67.10;;;;;;5038643;28;20477;-78
2021/09/20 09:45:25;;;;;;;11.87;9.37;;;18.20;64.10;;;;;;5041355;28;21015;-79
2021/09/20 09:48:06;;;;;;;12.40;9.60;;;17.30;68.50;;;;;;5059880;28;20964;-78
2021/09/20 09:50:34;;;;;;;10.77;9.00;;;17.50;69.10;;;;;;5039680;28;20453;-80
2021/09/20 09:53:01;;;;;;;11.20;9.50;;;17.50;67.70;;;;;;5039218;28;20484;-79
2021/09/20 09:55:32;;;;;;;12.27;9.93;;;17.40;69.10;;;;;;5046917;28;20461;-79
2021/09/20 09:58:11;;;;;;;11.67;9.57;;;17.70;67.80;;;;;;5025787;28;20515;-79
2021/09/20 10:00:38;;;;;;;10.50;9.50;;;17.90;66.70;;;;;;5030074;28;20576;-77
2021/09/20 10:03:06;;;;;;;12.00;10.47;;;18.40;64.80;;;;;;5059855;23;20505;-76
2021/09/20 10:05:33;;;;;;;13.13;9.97;;;18.00;63.60;;;;;;5034034;28;20530;-75
2021/09/20 10:08:00;;;;;;;13.07;9.60;;;17.60;65.60;;;;;;5034503;28;20473;-75
2021/09/20 10:10:30;;;;;;;13.93;11.13;;;17.40;68.60;;;;;;5034773;28;20438;-75
2021/09/20 10:12:59;;;;;;;19.70;11.23;;;17.30;69.60;;;;;;5039465;28;20809;-74
2021/09/20 10:15:28;;;;;;;13.17;10.90;;;17.30;68.70;;;;;;5040303;28;20493;-76
2021/09/20 10:17:56;;;;;;;13.47;10.23;;;17.40;69.10;;;;;;5038542;28;20537;-75
2021/09/20 10:20:25;;;;;;;13.00;10.63;;;17.60;67.10;;;;;;5044561;28;20525;-74
2021/09/20 10:22:53;;;;;;;12.17;10.30;;;17.50;68.50;;;;;;5049648;28;20474;-74
2021/09/20 10:25:23;;;;;;;12.70;10.50;;;17.70;67.30;;;;;;5045037;28;20460;-75
2021/09/20 10:27:52;;;;;;;13.83;10.30;;;17.60;66.60;;;;;;5037996;28;20503;-74
2021/09/20 10:30:23;;;;;;;10.90;9.80;;;17.50;69.20;;;;;;5034590;28;20454;-75
2021/09/20 10:32:53;;;;;;;13.17;10.73;;;17.80;66.10;;;;;;5038911;28;20527;-74
2021/09/20 10:35:28;;;;;;;12.93;10.37;;;17.90;65.90;;;;;;5045739;28;20483;-75
2021/09/20 10:38:00;;;;;;;13.73;10.73;;;17.60;67.10;;;;;;5045216;28;20493;-74
2021/09/20 10:40:27;;;;;;;14.83;10.57;;;17.40;68.90;;;;;;5043862;28;20501;-74
2021/09/20 10:43:00;;;;;;;13.77;10.63;;;17.60;67.80;;;;;;5041974;28;20551;-75
2021/09/20 10:45:58;;;;;;;14.60;10.60;;;17.40;68.20;;;;;;5034154;28;20470;-74
2021/09/20 10:48:34;;;;;;;17.30;11.57;;;17.30;68.50;;;;;;5034018;28;20512;-74
2021/09/20 10:51:14;;;;;;;19.43;12.60;;;17.60;67.50;;;;;;5032696;28;20500;-75
2021/09/20 10:53:42;;;;;;;16.33;10.70;;;17.80;65.10;;;;;;5033379;28;20474;-75
2021/09/20 10:56:21;;;;;;;15.90;11.57;;;17.80;65.80;;;;;;5043047;28;20461;-75
2021/09/20 10:59:15;;;;;;;13.80;10.93;;;17.80;64.80;;;;;;5037849;28;20453;-76
2021/09/20 11:01:43;;;;;;;14.83;10.67;;;17.80;65.80;;;;;;5032065;28;21410;-75
2021/09/20 11:04:17;;;;;;;13.60;11.20;;;17.80;65.50;;;;;;5034167;28;20512;-75
2021/09/20 11:07:05;;;;;;;13.63;10.40;;;18.00;64.40;;;;;;5038493;28;20457;-75
2021/09/20 11:09:54;;;;;;;15.23;11.40;;;18.30;63.40;;;;;;5034235;28;20450;-74
2021/09/20 11:12:24;;;;;;;13.40;11.40;;;18.50;60.30;;;;;;5032434;28;20456;-74
2021/09/20 11:15:16;;;;;;;15.83;10.63;;;18.60;59.00;;;;;;5032574;28;20430;-75
2021/09/20 11:17:46;;;;;;;12.80;11.20;;;18.70;57.40;;;;;;5027671;28;20508;-74
2021/09/20 11:20:35;;;;;;;12.40;10.67;;;18.30;59.60;;;;;;5032273;28;20524;-74
2021/09/20 11:23:28;;;;;;;15.50;11.20;;;18.40;60.00;;;;;;5033330;28;20504;-75
2021/09/20 11:26:17;;;;;;;11.43;10.23;;;18.90;58.30;;;;;;5036150;28;20470;-74
2021/09/20 11:28:47;;;;;;;13.80;11.03;;;19.20;56.00;;;;;;5036178;28;20927;-74
2021/09/20 11:31:15;;;;;;;12.30;10.97;;;19.40;55.50;;;;;;5037024;28;20906;-75
2021/09/20 11:33:44;;;;;;;12.70;10.30;;;19.30;53.90;;;;;;5035972;28;20557;-75
2021/09/20 11:36:20;;;;;;;14.43;11.47;;;19.20;55.30;;;;;;5036068;28;20448;-75
2021/09/20 11:38:47;;;;;;;12.10;10.80;;;19.10;55.60;;;;;;5036429;28;20550;-74
2021/09/20 11:41:19;;;;;;;12.40;10.30;;;18.80;55.50;;;;;;5035635;28;20496;-75
2021/09/20 11:43:46;;;;;;;12.83;9.57;;;18.90;55.40;;;;;;5035387;28;20462;-74
2021/09/20 11:46:21;;;;;;;10.87;8.97;;;19.10;54.70;;;;;;5035658;28;20497;-74
2021/09/20 11:48:48;;;;;;;11.33;10.00;;;19.50;53.80;;;;;;5035596;28;20454;-74
2021/09/20 11:51:24;;;;;;;15.77;10.33;;;19.70;52.60;;;;;;5035896;28;20446;-75
2021/09/20 11:53:52;;;;;;;12.37;10.73;;;19.40;54.30;;;;;;5019510;28;20466;-74
2021/09/20 11:56:24;;;;;;;12.63;9.77;;;18.90;55.90;;;;;;5036105;28;20521;-74
2021/09/20 11:58:53;;;;;;;13.20;11.10;;;19.00;54.30;;;;;;5027907;28;20496;-75
2021/09/20 12:01:25;;;;;;;14.70;9.97;;;19.10;55.10;;;;;;5030459;28;20494;-75
2021/09/20 12:03:53;;;;;;;11.20;9.63;;;18.70;55.30;;;;;;5027611;28;20981;-75
2021/09/20 12:06:25;;;;;;;10.23;9.23;;;18.40;57.10;;;;;;5035598;28;20464;-75
2021/09/20 12:08:52;;;;;;;12.60;10.20;;;18.70;56.30;;;;;;5036336;28;20458;-77
2021/09/20 12:11:23;;;;;;;9.77;8.77;;;18.50;56.60;;;;;;5036242;28;20965;-74
2021/09/20 12:13:51;;;;;;;11.57;9.27;;;18.70;55.80;;;;;;5021799;28;21004;-75
2021/09/20 12:16:18;;;;;;;11.13;10.03;;;18.80;54.80;;;;;;5035596;28;20453;-75
2021/09/20 12:18:47;;;;;;;10.20;9.20;;;19.20;53.30;;;;;;5035864;28;20454;-75
2021/09/20 12:21:16;;;;;;;11.17;9.53;;;19.60;52.10;;;;;;5034925;28;20579;-74
2021/09/20 12:23:45;;;;;;;10.60;9.50;;;19.50;51.90;;;;;;5035183;28;20474;-74
2021/09/20 12:26:13;;;;;;;10.37;9.37;;;19.60;51.30;;;;;;5032630;28;20488;-74
2021/09/20 12:28:43;;;;;;;11.53;9.60;;;19.80;51.40;;;;;;5021247;28;20460;-75
2021/09/20 12:31:13;;;;;;;9.07;8.27;;;19.80;50.40;;;;;;5037518;28;20545;-72
2021/09/20 12:33:55;;;;;;;11.20;8.90;;;19.70;50.70;;;;;;5036872;28;20518;-74
2021/09/20 12:36:28;;;;;;;10.17;9.27;;;19.90;49.20;;;;;;5036182;28;20493;-76
2021/09/20 12:39:10;;;;;;;9.80;8.80;;;19.80;49.60;;;;;;5039226;28;20446;-71
2021/09/20 12:41:40;;;;;;;10.10;9.10;;;19.30;51.20;;;;;;5039728;28;20517;-77
2021/09/20 12:44:08;;;;;;;11.63;8.60;;;19.60;51.40;;;;;;5036365;28;20454;-77
2021/09/20 12:46:37;;;;;;;9.47;8.57;;;19.00;52.90;;;;;;5037911;28;20877;-73